Time;durP1;ratioP1;P1;durP2;ratioP2;P2;SDS_P1;SDS_P2;PMS_P1;PMS_P2;Temp;Humidity;BMP_temperature;BMP_pressure;BME280_temperature;BME280_humidity;BME280_pressure;Samples;Min_cycle;Max_cycle;Signal;HPM_P1;HPM_P2
2023/08/16 00:01:32;;;;;;;154.02;147.63;;;;;;;27.93;41.19;101819.50;5089445;28;20354;-70
2023/08/16 00:03:57;;;;;;;164.13;157.35;;;;;;;27.91;41.35;101814.25;5091058;28;20432;-70
2023/08/16 00:06:23;;;;;;;153.30;146.63;;;;;;;27.88;41.45;101809.38;5090084;28;20052;-71
2023/08/16 00:08:48;;;;;;;151.68;145.27;;;;;;;27.87;41.29;101807.75;5091759;27;20052;-70
2023/08/16 00:11:14;;;;;;;156.77;150.18;;;;;;;27.86;41.45;101819.19;5091982;28;20074;-71
2023/08/16 00:13:39;;;;;;;152.75;146.35;;;;;;;27.84;41.51;101819.50;5092321;28;20380;-71
2023/08/16 00:16:05;;;;;;;156.32;149.55;;;;;;;27.82;41.35;101827.34;5091318;28;20081;-71
2023/08/16 00:18:31;;;;;;;154.75;148.15;;;;;;;27.81;41.41;101820.16;5097955;28;20043;-71
2023/08/16 00:20:59;;;;;;;152.18;145.85;;;;;;;27.78;41.38;101823.59;5091491;28;20031;-71
2023/08/16 00:23:24;;;;;;;148.63;142.35;;;;;;;27.76;41.64;101821.16;5090410;28;20459;-71
2023/08/16 00:25:50;;;;;;;152.80;146.40;;;;;;;27.74;41.67;101819.88;5092477;28;20229;-71
2023/08/16 00:28:15;;;;;;;154.23;147.73;;;;;;;27.72;41.56;101816.59;5087680;28;20036;-71
2023/08/16 00:30:41;;;;;;;152.43;146.10;;;;;;;27.70;41.40;101822.50;5090743;28;20491;-72
2023/08/16 00:33:06;;;;;;;152.07;145.70;;;;;;;27.69;41.36;101820.03;5091613;28;20422;-70
2023/08/16 00:35:31;;;;;;;150.93;144.60;;;;;;;27.66;41.37;101821.53;5091345;28;20472;-70
2023/08/16 00:37:58;;;;;;;155.88;149.40;;;;;;;27.66;41.39;101823.50;5082477;28;20391;-70
2023/08/16 00:40:24;;;;;;;151.52;145.02;;;;;;;27.63;41.61;101811.91;5095528;28;20454;-70
2023/08/16 00:42:49;;;;;;;148.15;141.77;;;;;;;27.61;41.41;101818.94;5091506;28;20537;-70
2023/08/16 00:45:15;;;;;;;147.63;141.50;;;;;;;27.58;41.43;101817.66;5089453;28;20036;-70
2023/08/16 00:47:41;;;;;;;152.30;145.95;;;;;;;27.58;41.70;101814.06;5090216;28;20408;-70
2023/08/16 00:50:08;;;;;;;146.68;140.27;;;;;;;27.56;41.42;101821.91;5089656;28;20505;-71
2023/08/16 00:52:33;;;;;;;149.82;143.40;;;;;;;27.54;41.47;101826.97;5090228;28;20403;-70
2023/08/16 00:55:02;;;;;;;147.85;141.65;;;;;;;27.52;41.60;101829.28;5091511;28;20040;-70
2023/08/16 00:57:28;;;;;;;151.00;144.50;;;;;;;27.50;41.46;101832.38;5090523;28;20653;-70
2023/08/16 00:59:53;;;;;;;149.38;143.07;;;;;;;27.48;41.56;101837.44;5090711;28;20441;-72
2023/08/16 01:02:19;;;;;;;145.60;139.48;;;;;;;27.46;41.69;101831.41;5090386;28;20039;-72
2023/08/16 01:04:47;;;;;;;146.02;139.85;;;;;;;27.45;41.64;101826.19;5089950;28;20032;-70
2023/08/16 01:07:12;;;;;;;152.70;146.10;;;;;;;27.43;41.45;101823.75;5090109;28;20032;-70
2023/08/16 01:09:38;;;;;;;147.68;141.43;;;;;;;27.41;41.60;101828.81;5087727;28;20119;-70
2023/08/16 01:12:31;;;;;;;146.15;139.75;;;;;;;27.39;41.58;101834.69;5096352;28;20433;-70
2023/08/16 01:15:16;;;;;;;146.00;139.73;;;;;;;27.34;41.60;101834.88;5088403;28;20392;-71
2023/08/16 01:17:43;;;;;;;154.38;147.90;;;;;;;27.33;41.73;101837.97;5090843;28;20050;-70
2023/08/16 01:20:10;;;;;;;146.00;139.80;;;;;;;27.31;41.52;101843.03;5089525;28;20039;-70
2023/08/16 01:22:49;;;;;;;145.70;139.60;;;;;;;27.27;41.46;101845.66;5089452;28;20464;-70
2023/08/16 01:25:25;;;;;;;;;;;;;;;27.23;41.79;101843.88;5091921;28;20036;-70
2023/08/16 01:27:52;;;;;;;141.13;135.20;;;;;;;27.23;41.68;101841.91;5090765;28;19947;-70
2023/08/16 01:30:20;;;;;;;143.93;137.77;;;;;;;27.21;41.52;101843.38;5089123;28;20374;-73
2023/08/16 01:32:47;;;;;;;143.43;137.32;;;;;;;27.19;41.67;101844.53;5088159;28;20066;-73
2023/08/16 01:35:13;;;;;;;146.93;140.68;;;;;;;27.18;41.56;101856.75;5086497;28;20027;-72
2023/08/16 01:37:38;;;;;;;150.02;143.73;;;;;;;27.17;41.41;101857.06;5089390;28;20078;-72
2023/08/16 01:40:05;;;;;;;147.90;141.60;;;;;;;27.16;41.71;101858.19;5086048;28;20043;-72
2023/08/16 01:42:34;;;;;;;147.65;141.15;;;;;;;27.15;41.48;101849.06;5090200;28;20080;-71
2023/08/16 01:45:01;;;;;;;152.63;146.02;;;;;;;27.13;41.67;101851.34;5090577;28;20028;-72
2023/08/16 01:47:28;;;;;;;147.75;141.25;;;;;;;27.11;41.79;101842.53;5087471;28;20024;-71
2023/08/16 01:49:55;;;;;;;145.70;139.45;;;;;;;27.10;41.46;101843.69;5091003;28;20047;-71
2023/08/16 01:52:21;;;;;;;147.00;140.80;;;;;;;27.09;41.62;101850.41;5090356;28;20040;-72
2023/08/16 01:54:47;;;;;;;148.55;142.25;;;;;;;27.05;41.64;101849.41;5091045;28;20036;-72
2023/08/16 01:57:12;;;;;;;143.63;137.43;;;;;;;27.04;41.69;101847.78;5087117;28;20032;-73
2023/08/16 01:59:37;;;;;;;144.25;138.05;;;;;;;27.03;41.66;101856.44;5091022;28;20043;-72
2023/08/16 02:02:03;;;;;;;149.38;142.68;;;;;;;27.01;41.64;101853.97;5088315;28;20720;-73
2023/08/16 02:04:28;;;;;;;147.07;140.52;;;;;;;26.99;41.62;101859.06;5090715;28;20040;-72
2023/08/16 02:06:54;;;;;;;145.52;139.13;;;;;;;26.98;41.82;101860.19;5080442;28;20046;-71
2023/08/16 02:09:19;;;;;;;141.57;135.30;;;;;;;26.96;41.48;101854.13;5080681;28;20074;-72
2023/08/16 02:11:45;;;;;;;139.68;133.73;;;;;;;26.94;41.76;101856.44;5090445;28;20395;-72
2023/08/16 02:14:10;;;;;;;135.70;129.60;;;;;;;26.92;41.59;101856.75;5083606;28;20103;-72
2023/08/16 02:16:36;;;;;;;137.23;131.43;;;;;;;26.90;41.48;101861.81;5087087;28;20040;-71
2023/08/16 02:19:01;;;;;;;136.20;130.32;;;;;;;26.90;41.79;101858.25;5091772;28;20361;-73
2023/08/16 02:21:27;;;;;;;139.68;133.55;;;;;;;26.88;41.65;101854.97;5093793;28;20039;-72
2023/08/16 02:23:52;;;;;;;137.55;131.65;;;;;;;26.85;41.96;101845.34;5091021;28;20039;-72
2023/08/16 02:26:18;;;;;;;144.25;138.20;;;;;;;26.84;41.87;101851.22;5091645;28;20036;-72
2023/08/16 02:28:43;;;;;;;140.18;134.18;;;;;;;26.83;41.75;101847.63;5091366;28;20043;-73
2023/08/16 02:31:09;;;;;;;139.30;133.38;;;;;;;26.81;41.66;101849.91;5093858;28;20028;-72
2023/08/16 02:33:34;;;;;;;138.20;132.25;;;;;;;26.79;41.69;101848.59;5090518;28;20399;-72
2023/08/16 02:36:00;;;;;;;136.68;130.57;;;;;;;26.77;41.68;101857.25;5091669;28;20085;-71
2023/08/16 02:38:25;;;;;;;143.95;137.65;;;;;;;26.74;41.80;101853.19;5093836;28;20067;-72
2023/08/16 02:40:51;;;;;;;136.82;131.02;;;;;;;26.72;41.72;101852.69;5093984;28;20460;-71
2023/08/16 02:43:16;;;;;;;137.95;132.00;;;;;;;26.71;41.58;101859.38;5089785;28;20486;-72
2023/08/16 02:45:42;;;;;;;137.57;131.57;;;;;;;26.70;41.39;101854.16;5095064;28;20032;-71
2023/08/16 02:48:08;;;;;;;137.20;131.30;;;;;;;26.68;41.66;101845.34;5092107;28;20045;-73
2023/08/16 02:50:34;;;;;;;137.88;131.77;;;;;;;26.66;41.74;101850.41;5092049;28;20069;-72
2023/08/16 02:52:59;;;;;;;135.05;129.30;;;;;;;26.66;41.91;101847.63;5092644;28;20067;-72
2023/08/16 02:55:24;;;;;;;135.63;129.63;;;;;;;26.63;41.69;101846.31;5094020;28;20055;-72
2023/08/16 02:57:50;;;;;;;134.48;128.75;;;;;;;26.63;41.77;101849.09;5090435;28;20032;-72
2023/08/16 03:00:16;;;;;;;136.38;130.57;;;;;;;26.62;41.87;101849.44;5094366;28;20121;-71
2023/08/16 03:02:41;;;;;;;137.68;131.73;;;;;;;26.60;41.59;101851.72;5092724;28;20107;-72
2023/08/16 03:05:08;;;;;;;144.35;138.15;;;;;;;26.58;41.58;101849.25;5095748;28;20397;-72
2023/08/16 03:07:34;;;;;;;142.05;135.77;;;;;;;26.58;41.93;101848.44;5091224;28;20044;-72
2023/08/16 03:09:59;;;;;;;138.18;132.10;;;;;;;26.54;41.69;101857.41;5092340;28;20043;-71
2023/08/16 03:12:25;;;;;;;137.18;131.27;;;;;;;26.54;41.77;101856.59;5092508;28;20036;-71
2023/08/16 03:14:50;;;;;;;137.43;131.52;;;;;;;26.53;41.99;101855.78;5093340;28;20479;-72
2023/08/16 03:17:15;;;;;;;135.55;129.70;;;;;;;26.51;41.75;101852.50;5094496;28;20111;-71
2023/08/16 03:19:41;;;;;;;137.52;131.48;;;;;;;26.50;41.70;101844.50;5090408;28;20141;-73
2023/08/16 03:22:07;;;;;;;139.55;133.48;;;;;;;26.47;41.97;101834.88;5093109;28;20086;-72
2023/08/16 03:24:32;;;;;;;133.13;127.20;;;;;;;26.46;42.09;101840.72;5092886;28;20032;-73
2023/08/16 03:26:58;;;;;;;135.68;129.93;;;;;;;26.44;41.78;101838.31;5087260;28;20051;-72
2023/08/16 03:29:23;;;;;;;136.50;130.60;;;;;;;26.43;42.03;101844.16;5090785;28;20472;-72
2023/08/16 03:31:49;;;;;;;135.50;129.65;;;;;;;26.41;42.17;101861.13;5091891;28;20023;-71
2023/08/16 03:34:14;;;;;;;136.05;130.18;;;;;;;26.39;41.94;101865.34;5088793;28;20492;-72
2023/08/16 03:36:40;;;;;;;136.75;130.85;;;;;;;26.37;41.84;101862.09;5091326;28;20522;-74
2023/08/16 03:39:06;;;;;;;135.75;129.70;;;;;;;26.36;41.96;101869.59;5088702;28;20036;-72
2023/08/16 03:41:33;;;;;;;137.23;131.32;;;;;;;26.34;42.34;101867.13;5092169;28;20032;-71
2023/08/16 03:43:59;;;;;;;135.98;129.93;;;;;;;26.32;41.65;101865.81;5091254;28;20126;-72
2023/08/16 03:46:24;;;;;;;133.57;127.88;;;;;;;26.30;41.86;101865.31;5089840;28;20111;-71
2023/08/16 03:48:50;;;;;;;141.05;134.93;;;;;;;26.29;41.74;101869.22;5093394;28;20127;-72
2023/08/16 03:51:15;;;;;;;132.65;126.82;;;;;;;26.27;42.14;101865.97;5091415;28;20038;-71
2023/08/16 03:53:40;;;;;;;135.55;129.75;;;;;;;26.24;42.03;101861.88;5090398;28;20036;-73
2023/08/16 03:56:06;;;;;;;132.07;126.20;;;;;;;26.24;41.90;101880.47;5092703;28;20107;-72
2023/08/16 03:58:31;;;;;;;134.55;128.55;;;;;;;26.22;42.20;101883.53;5092108;28;20464;-71
2023/08/16 04:00:57;;;;;;;138.20;132.32;;;;;;;26.20;42.13;101887.78;5086695;28;20032;-72
2023/08/16 04:03:22;;;;;;;130.98;124.93;;;;;;;26.18;42.00;101885.31;5085711;28;20039;-72
2023/08/16 04:05:48;;;;;;;133.57;127.57;;;;;;;26.17;42.25;101885.66;5091574;28;20482;-72
2023/08/16 04:08:13;;;;;;;133.63;127.82;;;;;;;26.15;41.99;101877.66;5089048;28;20064;-72
2023/08/16 04:10:38;;;;;;;132.60;126.93;;;;;;;26.14;42.33;101872.47;5091656;28;20040;-72
2023/08/16 04:13:04;;;;;;;134.00;128.32;;;;;;;26.13;42.37;101877.16;5086123;28;20040;-71
2023/08/16 04:15:30;;;;;;;133.40;127.70;;;;;;;26.10;41.98;101875.03;5090938;28;20039;-73
2023/08/16 04:17:56;;;;;;;134.88;128.98;;;;;;;26.08;41.97;101877.31;5087970;28;20243;-72
2023/08/16 04:20:22;;;;;;;130.68;125.05;;;;;;;26.07;41.99;101875.69;5092422;28;20036;-71
2023/08/16 04:22:48;;;;;;;130.80;125.13;;;;;;;26.06;42.03;101874.06;5087333;28;20031;-71
2023/08/16 04:25:14;;;;;;;131.60;125.85;;;;;;;26.03;42.09;101864.44;5090012;28;20044;-71
2023/08/16 04:27:39;;;;;;;131.20;125.53;;;;;;;26.02;42.30;101868.34;5091716;28;20440;-72
2023/08/16 04:30:06;;;;;;;130.50;124.68;;;;;;;26.00;41.92;101876.13;5092481;28;20116;-71
2023/08/16 04:32:31;;;;;;;131.43;125.63;;;;;;;25.98;42.19;101875.66;5087728;28;20106;-71
2023/08/16 04:34:57;;;;;;;135.70;129.70;;;;;;;25.97;41.89;101868.47;5091179;28;20472;-72
2023/08/16 04:37:22;;;;;;;134.02;128.13;;;;;;;25.96;42.00;101863.28;5086399;28;20035;-71
2023/08/16 04:39:48;;;;;;;131.45;125.85;;;;;;;25.94;42.04;101873.84;5082383;28;20460;-72
2023/08/16 04:42:14;;;;;;;133.85;127.95;;;;;;;25.93;42.15;101867.50;5096796;28;20035;-72
2023/08/16 04:44:39;;;;;;;130.02;124.43;;;;;;;25.91;41.96;101867.00;5088775;28;20044;-72
2023/08/16 04:47:05;;;;;;;132.20;126.20;;;;;;;25.90;41.98;101865.34;5090483;28;20396;-73
2023/08/16 04:49:32;;;;;;;128.73;123.22;;;;;;;25.88;42.30;101876.75;5082966;28;20393;-73
2023/08/16 04:51:58;;;;;;;131.65;126.03;;;;;;;25.87;42.12;101877.88;5088725;28;20036;-72
2023/08/16 04:54:23;;;;;;;130.00;124.32;;;;;;;25.85;42.31;101882.91;5088658;28;20039;-72
2023/08/16 04:56:49;;;;;;;131.75;125.85;;;;;;;25.83;42.08;101876.88;5088990;28;20040;-72
2023/08/16 04:59:15;;;;;;;130.70;124.80;;;;;;;25.82;42.17;101883.53;5088148;28;20395;-71
2023/08/16 05:01:41;;;;;;;128.50;122.95;;;;;;;25.81;42.09;101884.66;5086493;28;20453;-73
2023/08/16 05:04:08;;;;;;;128.73;123.18;;;;;;;25.79;42.43;101886.13;5089215;28;20032;-70
2023/08/16 05:06:34;;;;;;;130.60;124.80;;;;;;;25.77;42.49;101891.97;5085306;28;20039;-72
2023/08/16 05:09:00;;;;;;;132.75;126.78;;;;;;;25.78;42.48;101890.00;5089914;28;20051;-71
2023/08/16 05:11:25;;;;;;;128.95;123.45;;;;;;;25.75;42.43;101897.00;5089133;28;20395;-72
2023/08/16 05:13:51;;;;;;;130.95;125.25;;;;;;;25.74;42.23;101889.84;5092251;28;20388;-71
2023/08/16 05:16:16;;;;;;;127.70;122.00;;;;;;;25.73;42.09;101899.28;5088516;28;20036;-71
2023/08/16 05:18:42;;;;;;;128.50;123.00;;;;;;;25.72;42.22;101889.34;5089992;28;20047;-72
2023/08/16 05:21:07;;;;;;;129.43;123.88;;;;;;;25.70;42.46;101897.13;5090631;28;20482;-71
2023/08/16 05:23:34;;;;;;;129.85;124.22;;;;;;;25.71;42.22;101896.03;5091025;28;20440;-72
2023/08/16 05:26:00;;;;;;;132.23;126.55;;;;;;;25.68;42.44;101893.91;5088046;28;20126;-71
2023/08/16 05:28:26;;;;;;;130.02;124.40;;;;;;;25.67;42.21;101904.13;5089882;28;20123;-72
2023/08/16 05:30:51;;;;;;;130.55;124.97;;;;;;;25.66;42.11;101896.16;5090008;28;20108;-71
2023/08/16 05:33:17;;;;;;;128.68;122.97;;;;;;;25.65;42.22;101900.03;5087480;28;20498;-72
2023/08/16 05:35:42;;;;;;;127.60;121.90;;;;;;;25.65;42.21;101906.41;5097433;28;20042;-71
2023/08/16 05:38:08;;;;;;;126.63;121.10;;;;;;;25.63;42.17;101916.97;5082950;28;20034;-72
2023/08/16 05:40:34;;;;;;;130.48;124.88;;;;;;;25.63;42.42;101916.16;5090164;28;20584;-71
2023/08/16 05:42:59;;;;;;;127.15;121.65;;;;;;;25.62;42.17;101926.41;5089169;28;20040;-71
2023/08/16 05:45:28;;;;;;;130.43;124.75;;;;;;;25.60;42.01;101920.38;5082866;28;20036;-71
2023/08/16 05:47:54;;;;;;;129.82;124.18;;;;;;;25.60;42.31;101922.31;5084565;28;20035;-72
2023/08/16 05:50:21;;;;;;;124.93;119.55;;;;;;;25.60;41.99;101925.06;5090219;28;20059;-73
2023/08/16 05:52:46;;;;;;;134.18;128.48;;;;;;;25.59;42.45;101920.69;5089828;28;20040;-71
2023/08/16 05:55:12;;;;;;;129.20;123.68;;;;;;;25.57;42.37;101923.75;5092907;28;20058;-71
2023/08/16 05:57:37;;;;;;;127.78;122.25;;;;;;;25.57;42.21;101929.28;5090195;28;20971;-73
2023/08/16 06:00:03;;;;;;;129.35;123.65;;;;;;;25.55;42.24;101931.59;5094237;28;20031;-72
2023/08/16 06:02:29;;;;;;;126.82;121.35;;;;;;;25.55;42.36;101931.59;5093775;28;20172;-72
2023/08/16 06:04:54;;;;;;;128.98;123.28;;;;;;;25.55;41.95;101936.28;5092987;28;20042;-72
2023/08/16 06:07:23;;;;;;;125.68;120.15;;;;;;;25.54;42.33;101926.34;5091489;28;20135;-71
2023/08/16 06:09:50;;;;;;;125.28;119.90;;;;;;;25.52;42.21;101925.84;5090276;28;20040;-72
2023/08/16 06:12:16;;;;;;;127.95;122.22;;;;;;;25.51;42.37;101933.34;5094648;28;20093;-71
2023/08/16 06:14:41;;;;;;;128.27;122.40;;;;;;;25.50;42.42;101934.44;5093739;28;20036;-71
2023/08/16 06:17:07;;;;;;;126.50;120.90;;;;;;;25.50;42.36;101928.91;5092882;28;20035;-74
2023/08/16 06:19:32;;;;;;;125.10;119.75;;;;;;;25.48;42.02;101922.91;5083650;28;20086;-71
2023/08/16 06:21:59;;;;;;;127.05;121.53;;;;;;;25.48;42.32;101937.56;5090972;28;20199;-72
2023/08/16 06:24:25;;;;;;;127.60;122.03;;;;;;;25.47;42.14;101929.56;5087585;28;20067;-72
2023/08/16 06:26:50;;;;;;;127.55;122.03;;;;;;;25.47;42.48;101940.63;5088660;28;20066;-72
2023/08/16 06:29:16;;;;;;;124.40;118.80;;;;;;;25.45;42.27;101931.81;5087085;28;20103;-72
2023/08/16 06:31:41;;;;;;;125.03;119.65;;;;;;;25.44;42.34;101939.28;5092690;28;20152;-71
2023/08/16 06:34:07;;;;;;;126.95;121.35;;;;;;;25.44;42.62;101941.25;5088561;28;20383;-73
2023/08/16 06:36:32;;;;;;;125.28;119.78;;;;;;;25.44;42.34;101944.84;5086514;28;20412;-71
2023/08/16 06:38:58;;;;;;;125.25;119.80;;;;;;;25.44;42.32;101941.25;5090026;28;20020;-73
2023/08/16 06:41:23;;;;;;;124.05;118.30;;;;;;;25.42;42.57;101941.56;5087764;28;20034;-72
2023/08/16 06:43:49;;;;;;;126.05;120.45;;;;;;;25.42;42.55;101940.75;5091957;28;20028;-71
2023/08/16 06:46:14;;;;;;;126.50;120.97;;;;;;;25.43;42.57;101931.34;5089608;28;20044;-72
2023/08/16 06:48:40;;;;;;;124.38;119.03;;;;;;;25.42;42.28;101936.03;5088611;28;20063;-72
2023/08/16 06:51:05;;;;;;;123.22;117.70;;;;;;;25.42;42.26;101927.72;5085841;28;20350;-71
2023/08/16 06:53:33;;;;;;;123.80;118.20;;;;;;;25.42;42.20;101932.44;5090238;28;21151;-72
2023/08/16 06:55:58;;;;;;;122.15;116.88;;;;;;;25.44;42.25;101932.97;5085178;28;20379;-71
2023/08/16 06:58:24;;;;;;;121.35;116.20;;;;;;;25.44;42.22;101936.53;5091323;28;20036;-73
2023/08/16 07:00:50;;;;;;;125.55;120.15;;;;;;;25.44;42.14;101933.75;5089679;28;20031;-73
2023/08/16 07:03:17;;;;;;;125.15;119.85;;;;;;;25.46;42.40;101933.47;5085985;28;20548;-72
2023/08/16 07:05:43;;;;;;;123.97;118.47;;;;;;;25.47;42.25;101940.63;5081632;28;21225;-73
2023/08/16 07:08:08;;;;;;;124.45;118.95;;;;;;;25.48;42.23;101945.03;5099203;28;20049;-72
2023/08/16 07:10:34;;;;;;;125.63;120.05;;;;;;;25.48;42.39;101936.75;5091555;28;20036;-72
2023/08/16 07:13:00;;;;;;;126.07;120.60;;;;;;;25.49;41.95;101943.91;5086740;28;20120;-73
2023/08/16 07:15:25;;;;;;;122.32;117.10;;;;;;;25.49;42.02;101946.66;5090222;28;20032;-72
2023/08/16 07:17:50;;;;;;;123.55;118.25;;;;;;;25.49;42.16;101941.13;5089292;28;20540;-71
2023/08/16 07:20:16;;;;;;;123.28;117.80;;;;;;;25.49;42.31;101943.91;5087114;28;20043;-71
2023/08/16 07:22:41;;;;;;;124.32;118.72;;;;;;;25.49;42.07;101949.44;5086128;28;20043;-72
2023/08/16 07:25:08;;;;;;;126.38;120.68;;;;;;;25.48;42.11;101943.09;5084832;28;20032;-71
2023/08/16 07:27:34;;;;;;;121.93;116.43;;;;;;;25.50;42.35;101950.22;5089175;28;20044;-72
2023/08/16 07:29:59;;;;;;;125.05;119.45;;;;;;;25.50;42.63;101941.94;5089135;28;20089;-72
2023/08/16 07:32:25;;;;;;;124.30;119.03;;;;;;;25.51;42.12;101947.16;5088034;28;20036;-72
2023/08/16 07:34:51;;;;;;;123.85;118.38;;;;;;;25.52;42.30;101945.22;5088240;28;20123;-72
2023/08/16 07:37:17;;;;;;;125.57;119.97;;;;;;;25.53;42.18;101955.13;5085285;28;20047;-72
2023/08/16 07:39:44;;;;;;;124.25;118.47;;;;;;;25.55;42.33;101952.88;5089081;28;20074;-72
2023/08/16 07:42:10;;;;;;;123.90;118.50;;;;;;;25.55;42.10;101955.63;5087799;28;20027;-71
2023/08/16 07:44:35;;;;;;;127.22;121.53;;;;;;;25.54;42.70;101949.28;5088018;28;20383;-71
2023/08/16 07:47:01;;;;;;;124.68;119.13;;;;;;;25.56;42.69;101952.56;5087396;28;20126;-72
2023/08/16 07:49:27;;;;;;;125.68;120.30;;;;;;;25.57;42.41;101962.50;5086376;28;20044;-71
2023/08/16 07:51:56;;;;;;;121.80;116.63;;;;;;;25.59;42.50;101965.78;5093210;28;20036;-72
2023/08/16 07:54:22;;;;;;;126.45;121.05;;;;;;;25.60;42.39;101969.34;5087756;28;20045;-71
2023/08/16 07:56:47;;;;;;;126.13;120.72;;;;;;;25.61;42.75;101965.47;5089125;28;20024;-72
2023/08/16 07:59:13;;;;;;;129.00;123.40;;;;;;;25.62;42.45;101970.66;5088699;28;20044;-71
2023/08/16 08:01:40;;;;;;;122.47;116.70;;;;;;;25.65;42.83;101969.22;5093234;28;20032;-72
2023/08/16 08:04:06;;;;;;;123.28;117.88;;;;;;;25.67;42.66;101972.50;5089333;28;20068;-74
2023/08/16 08:06:32;;;;;;;122.55;117.30;;;;;;;25.69;42.46;101967.47;5079699;28;20028;-72
2023/08/16 08:08:58;;;;;;;124.85;119.50;;;;;;;25.71;42.89;101976.28;5087688;28;20052;-72
2023/08/16 08:11:23;;;;;;;127.97;122.38;;;;;;;25.74;42.82;101983.13;5091128;28;20027;-72
2023/08/16 08:13:49;;;;;;;123.63;118.40;;;;;;;25.76;42.53;101983.63;5089102;28;20528;-73
2023/08/16 08:16:14;;;;;;;125.32;119.90;;;;;;;25.78;43.03;101984.94;5084985;28;20090;-72
2023/08/16 08:18:39;;;;;;;126.68;121.25;;;;;;;25.80;43.02;101993.72;5088698;28;20115;-72
2023/08/16 08:21:05;;;;;;;124.97;119.35;;;;;;;25.84;43.05;101985.63;5090445;28;20512;-72
2023/08/16 08:23:30;;;;;;;124.00;118.70;;;;;;;25.87;43.25;101987.78;5085014;28;20027;-74
2023/08/16 08:25:56;;;;;;;128.93;123.22;;;;;;;25.88;42.71;101993.03;5087164;28;20312;-72
2023/08/16 08:28:22;;;;;;;127.53;121.97;;;;;;;25.91;42.67;101994.34;5088581;28;20071;-72
2023/08/16 08:30:48;;;;;;;125.97;120.65;;;;;;;25.94;42.93;102002.00;5090318;28;20104;-71
2023/08/16 08:33:14;;;;;;;127.15;121.65;;;;;;;25.97;42.71;101992.25;5087754;28;20036;-72
2023/08/16 08:35:40;;;;;;;127.38;121.88;;;;;;;25.98;42.92;101988.34;5086670;28;20090;-72
2023/08/16 08:38:05;;;;;;;127.75;122.32;;;;;;;26.02;42.96;101989.34;5087576;28;20028;-72
2023/08/16 08:40:31;;;;;;;129.02;123.53;;;;;;;26.04;43.13;101984.31;5087570;28;20043;-73
2023/08/16 08:42:58;;;;;;;128.18;122.63;;;;;;;26.07;43.19;101991.97;5088465;28;20027;-72
2023/08/16 08:45:25;;;;;;;127.05;121.68;;;;;;;26.09;42.92;101986.94;5084026;28;20452;-72
2023/08/16 08:47:51;;;;;;;126.30;120.80;;;;;;;26.11;43.15;101999.34;5089722;28;20081;-71
2023/08/16 08:50:17;;;;;;;128.70;123.10;;;;;;;26.15;42.85;101998.69;5088984;28;20077;-72
2023/08/16 08:52:50;;;;;;;129.90;124.38;;;;;;;26.17;43.02;102000.00;5089392;28;20407;-71
2023/08/16 08:55:15;;;;;;;127.55;122.05;;;;;;;26.19;43.44;101988.63;5087967;28;20565;-72
2023/08/16 08:57:43;;;;;;;126.78;121.43;;;;;;;26.22;43.12;101996.28;5087936;28;20112;-73
2023/08/16 09:00:14;;;;;;;129.87;124.17;;;;;;;26.23;42.97;101995.97;5086586;28;20028;-73
2023/08/16 09:02:40;;;;;;;129.98;124.47;;;;;;;26.27;43.23;101996.97;5086273;28;20089;-72
2023/08/16 09:05:09;;;;;;;137.00;131.20;;;;;;;26.29;43.43;102002.19;5086295;28;20043;-72
2023/08/16 09:07:37;;;;;;;128.23;122.72;;;;;;;26.30;43.14;102001.84;5086362;28;20109;-71
2023/08/16 09:10:03;;;;;;;130.18;124.65;;;;;;;26.33;43.24;102008.69;5090219;28;20127;-71
2023/08/16 09:12:28;;;;;;;131.75;126.15;;;;;;;26.35;43.49;102011.97;5087991;28;20122;-72
2023/08/16 09:14:53;;;;;;;132.40;126.65;;;;;;;26.37;43.40;102006.13;5088764;28;20352;-72
2023/08/16 09:17:19;;;;;;;126.53;121.13;;;;;;;26.39;43.46;102003.88;5082999;28;20055;-72
2023/08/16 09:19:45;;;;;;;128.20;122.70;;;;;;;26.42;43.29;102000.44;5088816;28;20467;-72
2023/08/16 09:22:14;;;;;;;134.63;128.82;;;;;;;26.44;43.40;102003.72;5087965;28;20052;-72
2023/08/16 09:24:42;;;;;;;131.10;125.35;;;;;;;26.45;43.45;101999.81;5089840;28;20092;-72
2023/08/16 09:27:08;;;;;;;133.13;127.32;;;;;;;26.46;43.65;102010.56;5084044;28;20036;-73
2023/08/16 09:29:37;;;;;;;135.10;129.45;;;;;;;26.49;43.49;102014.66;5088972;28;20460;-72
2023/08/16 09:32:06;;;;;;;134.70;128.70;;;;;;;26.51;43.63;102006.81;5089760;28;20112;-73
2023/08/16 09:34:31;;;;;;;135.75;130.05;;;;;;;26.53;43.51;102012.88;5087981;28;20027;-72
2023/08/16 09:36:57;;;;;;;135.05;129.35;;;;;;;26.52;43.46;102003.75;5084585;28;20465;-73
2023/08/16 09:39:25;;;;;;;133.40;127.70;;;;;;;26.56;43.54;102009.50;5084328;28;20232;-71
2023/08/16 09:41:51;;;;;;;131.75;126.15;;;;;;;26.57;43.67;102005.59;5089587;28;20058;-72
2023/08/16 09:44:17;;;;;;;132.88;127.25;;;;;;;26.59;43.72;102008.84;5087450;28;20024;-72
2023/08/16 09:46:43;;;;;;;133.90;128.15;;;;;;;26.61;43.65;102008.50;5087024;28;20404;-73
2023/08/16 09:49:10;;;;;;;137.43;131.57;;;;;;;26.62;43.53;102002.66;5084206;28;20031;-71
2023/08/16 09:51:37;;;;;;;134.38;128.55;;;;;;;26.64;43.58;101994.84;5086327;28;20050;-72
2023/08/16 09:54:14;;;;;;;138.02;132.25;;;;;;;26.66;43.61;102000.88;5089150;28;20363;-72
2023/08/16 09:56:40;;;;;;;133.02;127.43;;;;;;;26.67;43.54;101999.75;5089144;28;20027;-72
2023/08/16 09:59:13;;;;;;;134.07;128.45;;;;;;;26.69;43.39;102004.97;5081586;28;20048;-72
2023/08/16 10:01:39;;;;;;;135.13;129.40;;;;;;;26.69;43.69;101993.88;5087726;28;20391;-72
2023/08/16 10:04:07;;;;;;;134.32;128.73;;;;;;;26.71;43.74;101997.13;5088284;28;20475;-73
2023/08/16 10:06:34;;;;;;;135.57;129.88;;;;;;;26.71;43.53;101986.88;5089021;28;20032;-71
2023/08/16 10:09:04;;;;;;;137.52;131.68;;;;;;;26.73;43.50;101992.09;5081616;28;20044;-72
2023/08/16 10:11:32;;;;;;;136.90;131.10;;;;;;;26.73;43.70;101992.91;5087107;28;20028;-71
2023/08/16 10:13:58;;;;;;;134.88;129.18;;;;;;;26.74;43.46;101986.22;5086979;28;20436;-72
2023/08/16 10:16:27;;;;;;;139.25;133.35;;;;;;;26.78;43.44;101986.38;5088647;28;20040;-72
2023/08/16 10:18:54;;;;;;;135.50;129.75;;;;;;;26.78;43.24;101983.63;5082820;28;20081;-71
2023/08/16 10:21:21;;;;;;;138.05;131.98;;;;;;;26.80;43.44;101980.53;5087566;28;20119;-72
2023/08/16 10:23:47;;;;;;;136.73;130.93;;;;;;;26.81;43.38;101982.16;5088514;28;20028;-72
2023/08/16 10:26:15;;;;;;;138.02;132.13;;;;;;;26.82;43.60;101992.13;5087709;28;20581;-71
2023/08/16 10:28:49;;;;;;;141.70;135.07;;;;;;;26.83;43.42;101985.44;5088217;28;20032;-72
2023/08/16 10:31:19;;;;;;;138.07;132.18;;;;;;;26.84;43.19;101990.66;5084584;28;20281;-72
2023/08/16 10:33:48;;;;;;;131.77;126.13;;;;;;;26.85;43.46;101992.28;5088651;28;20028;-72
2023/08/16 10:36:14;;;;;;;138.25;132.18;;;;;;;26.85;43.55;101988.69;5087125;28;20027;-72
2023/08/16 10:38:44;;;;;;;139.70;133.82;;;;;;;26.86;43.18;101996.69;5079296;28;20353;-72
2023/08/16 10:41:14;;;;;;;137.65;131.75;;;;;;;26.88;43.52;101994.41;5082780;28;20504;-72
2023/08/16 10:43:46;;;;;;;137.77;132.00;;;;;;;26.88;43.45;101991.63;5092433;28;20031;-71
2023/08/16 10:46:12;;;;;;;134.55;128.80;;;;;;;26.90;43.48;101994.09;5091378;28;20047;-73
2023/08/16 10:48:38;;;;;;;134.60;128.85;;;;;;;26.90;43.37;101986.56;5091196;28;20484;-72
2023/08/16 10:51:05;;;;;;;139.73;133.75;;;;;;;26.93;43.23;101988.69;5084807;28;20044;-72